createdAt,value
2017-10-09T00:00:02.778Z,0.00
2017-10-09T00:01:55.639Z,0.00
2017-10-09T00:02:55.507Z,0.00
2017-10-09T00:04:48.575Z,0.00
2017-10-09T00:05:48.519Z,0.00
2017-10-09T00:07:41.421Z,0.00
2017-10-09T00:08:41.153Z,0.00
2017-10-09T00:10:33.924Z,0.00
2017-10-09T00:11:33.806Z,0.00
2017-10-09T00:13:26.608Z,0.00
2017-10-09T00:14:26.481Z,0.00
2017-10-09T00:16:19.353Z,0.00
2017-10-09T00:17:19.225Z,0.00
2017-10-09T00:19:12.001Z,0.00
2017-10-09T00:20:12.083Z,0.00
2017-10-09T00:22:04.650Z,0.00
2017-10-09T00:23:04.521Z,0.00
2017-10-09T00:24:57.370Z,0.00
2017-10-09T00:25:57.279Z,0.00
2017-10-09T00:27:50.084Z,0.00
2017-10-09T00:28:49.954Z,0.00
2017-10-09T00:30:42.725Z,0.00
2017-10-09T00:31:42.632Z,0.00
2017-10-09T00:33:35.995Z,0.00
2017-10-09T00:34:35.820Z,0.00
2017-10-09T00:36:28.601Z,0.00
2017-10-09T00:37:28.468Z,0.00
2017-10-09T00:39:21.318Z,0.00
2017-10-09T00:40:21.234Z,0.00
2017-10-09T00:42:14.078Z,0.00
2017-10-09T00:43:14.008Z,0.00
2017-10-09T00:45:06.646Z,0.00
2017-10-09T00:46:06.545Z,0.00
2017-10-09T00:47:59.348Z,0.00
2017-10-09T00:48:59.217Z,0.00
2017-10-09T00:50:52.084Z,0.00
2017-10-09T00:51:51.996Z,0.00
2017-10-09T00:53:44.902Z,0.00
2017-10-09T00:54:44.673Z,0.00
2017-10-09T00:56:38.061Z,0.00
2017-10-09T00:57:37.852Z,0.00
2017-10-09T00:59:30.597Z,0.00
2017-10-09T01:00:30.518Z,0.00
2017-10-09T01:02:23.345Z,0.00
2017-10-09T01:03:23.219Z,0.00
2017-10-09T01:05:16.065Z,0.00
2017-10-09T01:06:15.883Z,0.00
2017-10-09T01:08:09.682Z,0.00
2017-10-09T01:09:09.555Z,0.00
2017-10-09T01:11:02.422Z,0.00
2017-10-09T01:12:02.183Z,0.00
2017-10-09T01:13:54.932Z,0.00
2017-10-09T01:14:54.853Z,0.00
2017-10-09T01:16:47.710Z,0.00
2017-10-09T01:17:47.549Z,0.00
2017-10-09T01:19:40.306Z,0.00
2017-10-09T01:20:40.276Z,0.00
2017-10-09T01:22:32.986Z,0.00
2017-10-09T01:23:32.825Z,0.00
2017-10-09T01:25:25.565Z,0.00
2017-10-09T01:26:25.482Z,0.00
2017-10-09T01:28:18.485Z,0.00
2017-10-09T01:29:18.203Z,0.00
2017-10-09T01:31:11.134Z,0.00
2017-10-09T01:32:10.857Z,0.00
2017-10-09T01:34:03.705Z,0.00
2017-10-09T01:35:03.500Z,0.00
2017-10-09T01:36:56.397Z,0.00
2017-10-09T01:37:56.266Z,0.00
2017-10-09T01:39:49.090Z,0.00
2017-10-09T01:40:48.998Z,0.00
2017-10-09T01:42:42.260Z,0.00
2017-10-09T01:43:41.715Z,0.00
2017-10-09T01:45:34.430Z,0.00
2017-10-09T01:46:34.301Z,0.00
2017-10-09T01:48:27.096Z,0.00
2017-10-09T01:49:26.966Z,0.00
2017-10-09T01:51:19.759Z,0.00
2017-10-09T01:52:19.630Z,0.00
2017-10-09T01:54:12.412Z,0.00
2017-10-09T01:55:12.444Z,0.00
2017-10-09T01:57:05.135Z,0.00
2017-10-09T01:58:04.977Z,0.00
2017-10-09T01:59:57.740Z,0.00
2017-10-09T02:00:57.656Z,0.00
2017-10-09T02:02:50.449Z,0.00
2017-10-09T02:03:50.319Z,0.00
2017-10-09T02:05:43.135Z,0.00
2017-10-09T02:06:43.064Z,0.00
2017-10-09T02:08:35.777Z,0.00
2017-10-09T02:09:35.637Z,0.00
2017-10-09T02:11:28.414Z,0.00
2017-10-09T02:12:28.285Z,0.00
2017-10-09T02:14:21.331Z,0.00
2017-10-09T02:15:21.249Z,0.00
2017-10-09T02:17:14.098Z,0.00
2017-10-09T02:18:14.034Z,0.00
2017-10-09T02:20:06.651Z,0.00
2017-10-09T02:21:06.557Z,0.00
2017-10-09T02:22:59.363Z,0.00
2017-10-09T02:23:59.236Z,0.00
2017-10-09T02:25:52.018Z,0.00
2017-10-09T02:26:51.929Z,0.00
2017-10-09T02:28:44.808Z,0.00
2017-10-09T02:29:44.594Z,0.00
2017-10-09T02:31:37.384Z,0.00
2017-10-09T02:32:37.380Z,0.00
2017-10-09T02:34:30.005Z,0.00
2017-10-09T02:35:29.918Z,0.00
2017-10-09T02:37:22.724Z,0.00
2017-10-09T02:38:22.590Z,0.00
2017-10-09T02:40:15.401Z,0.00
2017-10-09T02:41:15.257Z,0.00
2017-10-09T02:43:08.104Z,0.00
2017-10-09T02:44:08.063Z,0.00
2017-10-09T02:46:00.657Z,0.00
2017-10-09T02:47:00.581Z,0.00
2017-10-09T02:48:53.361Z,0.00
2017-10-09T02:49:53.231Z,0.00
2017-10-09T02:51:46.032Z,0.00
2017-10-09T02:52:45.902Z,0.00
2017-10-09T02:54:38.756Z,0.00
2017-10-09T02:55:38.539Z,0.00
2017-10-09T02:57:31.314Z,0.00
2017-10-09T02:58:31.199Z,0.00
2017-10-09T03:00:24.134Z,0.00
2017-10-09T03:01:24.053Z,0.00
2017-10-09T03:03:16.888Z,0.00
2017-10-09T03:04:16.733Z,0.00
2017-10-09T03:06:09.510Z,0.00
2017-10-09T03:07:09.403Z,0.00
2017-10-09T03:09:02.162Z,0.00
2017-10-09T03:10:02.024Z,0.00
2017-10-09T03:11:54.978Z,0.00
2017-10-09T03:12:54.851Z,0.00
2017-10-09T03:14:47.719Z,0.00
2017-10-09T03:15:47.626Z,0.00
2017-10-09T03:17:40.366Z,0.00
2017-10-09T03:18:40.223Z,0.00
2017-10-09T03:20:32.968Z,0.00
2017-10-09T03:21:32.904Z,0.00
2017-10-09T03:23:25.671Z,0.00
2017-10-09T03:24:25.545Z,0.00
2017-10-09T03:26:18.870Z,0.00
2017-10-09T03:27:18.732Z,0.00
2017-10-09T03:29:11.701Z,0.00
2017-10-09T03:30:11.391Z,0.00
2017-10-09T03:32:04.227Z,0.00
2017-10-09T03:33:04.037Z,0.00
2017-10-09T03:34:56.774Z,0.00
2017-10-09T03:35:56.690Z,0.00
2017-10-09T03:37:49.695Z,0.00
2017-10-09T03:38:49.511Z,0.00
2017-10-09T03:40:42.337Z,0.00
2017-10-09T03:41:42.196Z,0.00
2017-10-09T03:43:34.982Z,0.00
2017-10-09T03:44:34.834Z,0.00
2017-10-09T03:46:27.589Z,0.00
2017-10-09T03:47:27.504Z,0.00
2017-10-09T03:49:20.341Z,0.00
2017-10-09T03:50:20.209Z,0.00
2017-10-09T03:52:13.368Z,0.00
2017-10-09T03:53:12.883Z,0.00
2017-10-09T03:55:05.678Z,0.00
2017-10-09T03:56:05.526Z,0.00
2017-10-09T03:57:58.325Z,0.00
2017-10-09T03:58:58.198Z,0.00
2017-10-09T04:00:50.971Z,0.00
2017-10-09T04:01:50.888Z,0.00
2017-10-09T04:03:43.691Z,0.00
2017-10-09T04:04:43.558Z,0.00
2017-10-09T04:06:36.286Z,0.00
2017-10-09T04:07:36.202Z,0.00
2017-10-09T04:09:29.046Z,0.00
2017-10-09T04:10:28.920Z,0.00
2017-10-09T04:12:22.016Z,0.00
2017-10-09T04:13:21.881Z,0.00
2017-10-09T04:15:14.625Z,0.00
2017-10-09T04:16:14.543Z,0.00
2017-10-09T04:18:07.381Z,0.00
2017-10-09T04:19:07.278Z,0.00
2017-10-09T04:20:59.972Z,0.00
2017-10-09T04:21:59.891Z,0.00
2017-10-09T04:23:52.739Z,0.00
2017-10-09T04:24:52.611Z,0.00
2017-10-09T04:26:45.419Z,0.00
2017-10-09T04:27:45.290Z,0.00
2017-10-09T04:29:38.155Z,0.00
2017-10-09T04:30:37.938Z,0.00
2017-10-09T04:32:30.721Z,0.00
2017-10-09T04:33:30.595Z,0.00
2017-10-09T04:35:23.342Z,0.00
2017-10-09T04:36:23.261Z,0.00
2017-10-09T04:38:16.325Z,0.00
2017-10-09T04:39:16.010Z,0.00
2017-10-09T04:41:08.704Z,0.00
2017-10-09T04:42:08.591Z,0.00
2017-10-09T04:44:01.426Z,0.00
2017-10-09T04:45:01.285Z,0.00
2017-10-09T04:46:54.031Z,0.00
2017-10-09T04:47:53.944Z,0.00
2017-10-09T04:49:46.755Z,0.00
2017-10-09T04:50:46.627Z,0.00
2017-10-09T04:52:39.480Z,0.00
2017-10-09T04:53:39.294Z,0.00
2017-10-09T04:55:32.005Z,0.00
2017-10-09T04:56:31.917Z,0.00
2017-10-09T04:58:24.723Z,0.00
2017-10-09T04:59:24.593Z,0.00
2017-10-09T05:01:17.355Z,0.00
2017-10-09T05:02:17.253Z,0.00
2017-10-09T05:04:10.057Z,0.00
2017-10-09T05:05:10.060Z,0.00
2017-10-09T05:07:02.649Z,0.00
2017-10-09T05:08:02.555Z,0.00
2017-10-09T05:09:55.362Z,0.00
2017-10-09T05:10:55.234Z,0.00
2017-10-09T05:12:48.628Z,0.00
2017-10-09T05:13:48.490Z,0.00
2017-10-09T05:15:41.254Z,0.00
2017-10-09T05:16:41.293Z,0.00
2017-10-09T05:18:33.960Z,0.00
2017-10-09T05:19:33.801Z,0.00
2017-10-09T05:21:26.539Z,0.00
2017-10-09T05:22:26.458Z,0.00
2017-10-09T05:24:19.272Z,0.00
2017-10-09T05:25:19.144Z,0.00
2017-10-09T05:27:11.984Z,0.00
2017-10-09T05:28:11.820Z,0.00
2017-10-09T05:30:05.040Z,0.00
2017-10-09T05:31:05.014Z,0.00
2017-10-09T05:32:57.750Z,5.63
2017-10-09T05:33:57.616Z,5.63
2017-10-09T05:35:50.437Z,5.63
2017-10-09T05:36:50.354Z,5.63
2017-10-09T05:38:43.214Z,5.63
2017-10-09T05:39:43.059Z,5.63
2017-10-09T05:41:35.808Z,5.63
2017-10-09T05:42:35.686Z,11.25
2017-10-09T05:44:28.669Z,11.25
2017-10-09T05:45:28.408Z,11.25
2017-10-09T05:47:21.184Z,11.25
2017-10-09T05:48:21.056Z,11.25
2017-10-09T05:50:13.810Z,16.88
2017-10-09T05:51:13.723Z,16.88
2017-10-09T05:53:06.496Z,16.88
2017-10-09T05:54:06.368Z,16.88
2017-10-09T05:55:59.109Z,22.50
2017-10-09T05:56:59.036Z,22.50
2017-10-09T05:58:51.894Z,22.50
2017-10-09T05:59:51.763Z,28.13
2017-10-09T06:01:44.533Z,28.13
2017-10-09T06:02:44.443Z,28.13
2017-10-09T06:04:37.671Z,33.75
2017-10-09T06:05:37.104Z,33.75
2017-10-09T06:07:30.368Z,33.75
2017-10-09T06:08:30.237Z,33.75
2017-10-09T06:10:23.577Z,39.38
2017-10-09T06:11:23.406Z,39.38
2017-10-09T06:13:16.216Z,39.38
2017-10-09T06:14:16.150Z,39.38
2017-10-09T06:16:08.869Z,39.38
2017-10-09T06:17:08.743Z,39.38
2017-10-09T06:19:01.521Z,33.75
2017-10-09T06:20:01.384Z,39.38
2017-10-09T06:21:54.243Z,39.38
2017-10-09T06:22:54.158Z,45.00
2017-10-09T06:24:47.007Z,50.63
2017-10-09T06:25:46.803Z,50.63
2017-10-09T06:27:39.626Z,50.63
2017-10-09T06:28:39.456Z,56.25
2017-10-09T06:30:32.263Z,56.25
2017-10-09T06:31:32.185Z,67.50
2017-10-09T06:33:24.962Z,67.50
2017-10-09T06:34:24.832Z,67.50
2017-10-09T06:36:17.571Z,73.13
2017-10-09T06:37:17.502Z,67.50
2017-10-09T06:39:10.618Z,67.50
2017-10-09T06:40:10.233Z,73.13
2017-10-09T06:42:02.883Z,84.38
2017-10-09T06:43:02.803Z,78.75
2017-10-09T06:44:55.597Z,67.50
2017-10-09T06:45:55.462Z,67.50
2017-10-09T06:47:48.318Z,73.13
2017-10-09T06:48:48.206Z,73.13
2017-10-09T06:50:40.937Z,78.75
2017-10-09T06:51:40.848Z,73.13
2017-10-09T06:53:33.632Z,78.75
2017-10-09T06:54:33.492Z,84.38
2017-10-09T06:56:26.319Z,90.00
2017-10-09T06:57:26.237Z,95.63
2017-10-09T06:59:19.031Z,101.25
2017-10-09T07:00:18.903Z,106.88
2017-10-09T07:02:11.713Z,106.88
2017-10-09T07:03:11.633Z,106.88
2017-10-09T07:05:04.837Z,112.50
2017-10-09T07:06:04.701Z,118.13
2017-10-09T07:07:57.490Z,112.50
2017-10-09T07:08:57.367Z,101.25
2017-10-09T07:10:50.212Z,101.25
2017-10-09T07:11:50.125Z,106.88
2017-10-09T07:13:43.213Z,135.00
2017-10-09T07:14:42.819Z,129.38
2017-10-09T07:16:35.582Z,123.75
2017-10-09T07:17:35.454Z,123.75
2017-10-09T07:19:28.238Z,118.13
2017-10-09T07:20:28.110Z,123.75
2017-10-09T07:22:21.491Z,129.38
2017-10-09T07:23:21.406Z,140.63
2017-10-09T07:25:14.225Z,163.13
2017-10-09T07:26:14.390Z,163.13
2017-10-09T07:28:06.887Z,157.50
2017-10-09T07:29:06.777Z,146.25
2017-10-09T07:30:59.502Z,140.63
2017-10-09T07:31:59.417Z,123.75
2017-10-09T07:33:52.322Z,118.13
2017-10-09T07:34:52.192Z,129.38
2017-10-09T07:36:45.352Z,157.50
2017-10-09T07:37:45.019Z,140.63
2017-10-09T07:39:38.028Z,129.38
2017-10-09T07:40:37.832Z,135.00
2017-10-09T07:42:30.515Z,168.75
2017-10-09T07:43:30.440Z,180.00
2017-10-09T07:45:23.167Z,191.25
2017-10-09T07:46:23.002Z,185.63
2017-10-09T07:48:15.834Z,163.13
2017-10-09T07:49:15.704Z,151.88
2017-10-09T07:51:09.328Z,191.25
2017-10-09T07:52:08.414Z,191.25
2017-10-09T07:54:01.087Z,151.88
2017-10-09T07:55:00.959Z,135.00
2017-10-09T07:56:53.699Z,129.38
2017-10-09T07:57:53.614Z,123.75
2017-10-09T07:59:46.984Z,106.88
2017-10-09T08:00:46.889Z,90.00
2017-10-09T08:02:40.437Z,90.00
2017-10-09T08:03:40.115Z,90.00
2017-10-09T08:05:32.779Z,112.50
2017-10-09T08:06:32.650Z,118.13
2017-10-09T08:08:25.414Z,123.75
2017-10-09T08:09:25.328Z,129.38
2017-10-09T08:11:18.697Z,129.38
2017-10-09T08:12:18.565Z,123.75
2017-10-09T08:14:11.334Z,118.13
2017-10-09T08:15:11.444Z,118.13
2017-10-09T08:17:04.057Z,118.13
2017-10-09T08:18:03.899Z,112.50
2017-10-09T08:19:56.752Z,146.25
2017-10-09T08:20:56.608Z,146.25
2017-10-09T08:22:49.603Z,151.88
2017-10-09T08:23:49.314Z,151.88
2017-10-09T08:25:42.448Z,140.63
2017-10-09T08:26:42.371Z,140.63
2017-10-09T08:28:35.218Z,151.88
2017-10-09T08:29:35.108Z,151.88
2017-10-09T08:31:27.884Z,151.88
2017-10-09T08:32:27.758Z,157.50
2017-10-09T08:34:21.044Z,163.13
2017-10-09T08:35:20.944Z,151.88
2017-10-09T08:37:14.470Z,151.88
2017-10-09T08:38:13.611Z,163.13
2017-10-09T08:40:06.354Z,174.38
2017-10-09T08:41:06.290Z,180.00
2017-10-09T08:42:59.050Z,213.75
2017-10-09T08:43:58.923Z,208.13
2017-10-09T08:45:51.946Z,196.88
2017-10-09T08:46:51.860Z,202.50
2017-10-09T08:48:44.766Z,185.63
2017-10-09T08:49:44.526Z,185.63
2017-10-09T08:51:37.796Z,202.50
2017-10-09T08:52:38.120Z,225.00
2017-10-09T08:54:30.002Z,225.00
2017-10-09T08:55:29.873Z,247.50
2017-10-09T08:57:22.680Z,253.13
2017-10-09T08:58:22.536Z,253.13
2017-10-09T09:00:15.291Z,196.88
2017-10-09T09:01:15.205Z,208.13
2017-10-09T09:03:08.362Z,219.38
2017-10-09T09:04:07.978Z,213.75
2017-10-09T09:06:00.593Z,196.88
2017-10-09T09:07:00.511Z,202.50
2017-10-09T09:08:53.860Z,225.00
2017-10-09T09:09:53.485Z,253.13
2017-10-09T09:11:46.383Z,286.88
2017-10-09T09:12:46.169Z,286.88
2017-10-09T09:14:38.990Z,281.25
2017-10-09T09:15:38.848Z,292.50
2017-10-09T09:17:31.613Z,298.13
2017-10-09T09:18:31.491Z,258.75
2017-10-09T09:20:24.385Z,219.38
2017-10-09T09:21:24.262Z,219.38
2017-10-09T09:23:17.053Z,202.50
2017-10-09T09:24:16.930Z,196.88
2017-10-09T09:26:09.789Z,208.13
2017-10-09T09:27:09.605Z,202.50
2017-10-09T09:29:02.389Z,191.25
2017-10-09T09:30:02.315Z,163.13
2017-10-09T09:31:55.230Z,163.13
2017-10-09T09:32:55.142Z,174.38
2017-10-09T09:34:55.091Z,163.13
2017-10-09T09:35:50.359Z,191.25
2017-10-09T09:36:49.019Z,196.88
2017-10-09T09:37:48.935Z,180.00
2017-10-09T09:38:48.871Z,196.88
2017-10-09T09:39:48.819Z,230.63
2017-10-09T09:40:48.708Z,236.25
2017-10-09T09:41:48.905Z,247.50
2017-10-09T09:42:48.621Z,253.13
2017-10-09T09:43:48.479Z,208.13
2017-10-09T09:44:48.408Z,191.25
2017-10-09T09:45:48.330Z,185.63
2017-10-09T09:46:48.253Z,163.13
2017-10-09T09:47:48.206Z,157.50
2017-10-09T09:48:48.418Z,174.38
2017-10-09T09:49:48.117Z,185.63
2017-10-09T09:50:48.029Z,219.38
2017-10-09T09:51:48.414Z,253.13
2017-10-09T09:52:47.797Z,275.63
2017-10-09T09:53:47.834Z,292.50
2017-10-09T09:54:47.724Z,309.38
2017-10-09T09:55:47.615Z,292.50
2017-10-09T09:56:47.682Z,286.88
2017-10-09T09:57:47.421Z,270.00
2017-10-09T09:58:47.714Z,275.63
2017-10-09T09:59:47.269Z,264.38
2017-10-09T10:00:47.194Z,275.63
2017-10-09T10:01:47.149Z,275.63
2017-10-09T10:02:47.103Z,286.88
2017-10-09T10:03:46.977Z,298.13
2017-10-09T10:04:47.063Z,309.38
2017-10-09T10:05:46.965Z,303.75
2017-10-09T10:06:46.731Z,303.75
2017-10-09T10:07:46.675Z,298.13
2017-10-09T10:08:46.609Z,326.25
2017-10-09T10:09:46.513Z,292.50
2017-10-09T10:10:46.425Z,309.38
2017-10-09T10:11:46.368Z,331.88
2017-10-09T10:12:46.335Z,376.88
2017-10-09T10:13:46.201Z,371.25
2017-10-09T10:14:46.190Z,309.38
2017-10-09T10:15:46.316Z,281.25
2017-10-09T10:16:45.972Z,241.88
2017-10-09T10:17:45.902Z,213.75
2017-10-09T10:18:45.827Z,157.50
2017-10-09T10:19:45.764Z,129.38
2017-10-09T10:20:45.785Z,95.63
2017-10-09T10:21:45.685Z,84.38
2017-10-09T10:22:45.522Z,73.13
2017-10-09T10:23:45.450Z,67.50
2017-10-09T10:24:45.379Z,61.88
2017-10-09T10:25:45.457Z,73.13
2017-10-09T10:26:45.470Z,78.75
2017-10-09T10:27:45.268Z,84.38
2017-10-09T10:28:45.066Z,90.00
2017-10-09T10:29:46.140Z,90.00
2017-10-09T10:30:44.913Z,95.63
2017-10-09T10:31:45.232Z,95.63
2017-10-09T10:32:44.762Z,112.50
2017-10-09T10:33:44.707Z,112.50
2017-10-09T10:34:44.614Z,118.13
2017-10-09T10:35:44.711Z,118.13
2017-10-09T10:36:44.963Z,135.00
2017-10-09T10:37:44.456Z,168.75
2017-10-09T10:38:44.309Z,236.25
2017-10-09T10:39:44.441Z,258.75
2017-10-09T10:40:44.446Z,275.63
2017-10-09T10:41:44.076Z,275.63
2017-10-09T10:42:44.002Z,225.00
2017-10-09T10:43:43.949Z,225.00
2017-10-09T10:44:44.058Z,247.50
2017-10-09T10:45:43.773Z,208.13
2017-10-09T10:46:43.918Z,157.50
2017-10-09T10:47:43.701Z,146.25
2017-10-09T10:48:43.562Z,140.63
2017-10-09T10:49:43.470Z,151.88
2017-10-09T10:50:43.417Z,157.50
2017-10-09T10:51:43.686Z,191.25
2017-10-09T10:52:43.350Z,219.38
2017-10-09T10:53:43.353Z,281.25
2017-10-09T10:54:43.103Z,315.00
2017-10-09T10:55:43.346Z,331.88
2017-10-09T10:56:43.970Z,343.13
2017-10-09T10:57:42.949Z,416.25
2017-10-09T10:58:42.917Z,466.88
2017-10-09T10:59:42.895Z,1080.00
2017-10-09T11:00:43.113Z,517.50
2017-10-09T11:01:42.758Z,495.00
2017-10-09T11:02:42.779Z,450.00
2017-10-09T11:03:42.589Z,663.75
2017-10-09T11:04:42.382Z,444.38
2017-10-09T11:05:42.252Z,376.88
2017-10-09T11:06:42.969Z,466.88
2017-10-09T11:07:42.328Z,360.00
2017-10-09T11:08:42.622Z,500.63
2017-10-09T11:09:42.723Z,292.50
2017-10-09T11:10:41.937Z,253.13
2017-10-09T11:11:41.801Z,258.75
2017-10-09T11:12:41.926Z,258.75
2017-10-09T11:13:41.829Z,230.63
2017-10-09T11:14:41.861Z,202.50
2017-10-09T11:15:42.561Z,185.63
2017-10-09T11:16:41.720Z,202.50
2017-10-09T11:17:41.457Z,202.50
2017-10-09T11:18:41.480Z,191.25
2017-10-09T11:19:41.270Z,225.00
2017-10-09T11:20:41.263Z,219.38
2017-10-09T11:21:41.064Z,241.88
2017-10-09T11:22:41.294Z,230.63
2017-10-09T11:23:41.018Z,213.75
2017-10-09T11:24:40.828Z,163.13
2017-10-09T11:25:40.763Z,180.00
2017-10-09T11:26:40.805Z,225.00
2017-10-09T11:27:40.805Z,230.63
2017-10-09T11:28:40.907Z,202.50
2017-10-09T11:29:40.610Z,191.25
2017-10-09T11:30:40.423Z,202.50
2017-10-09T11:31:40.799Z,151.88
2017-10-09T11:32:40.428Z,140.63
2017-10-09T11:33:40.453Z,140.63
2017-10-09T11:34:40.426Z,151.88
2017-10-09T11:35:40.245Z,151.88
2017-10-09T11:36:39.920Z,185.63
2017-10-09T11:37:39.839Z,275.63
2017-10-09T11:38:39.877Z,703.13
2017-10-09T11:39:39.756Z,416.25
2017-10-09T11:40:39.639Z,500.63
2017-10-09T11:41:40.223Z,315.00
2017-10-09T11:42:39.534Z,230.63
2017-10-09T11:43:39.480Z,219.38
2017-10-09T11:44:39.595Z,213.75
2017-10-09T11:45:39.241Z,202.50
2017-10-09T11:46:39.167Z,185.63
2017-10-09T11:47:39.096Z,185.63
2017-10-09T11:48:39.215Z,168.75
2017-10-09T11:49:38.952Z,157.50
2017-10-09T11:50:38.866Z,151.88
2017-10-09T11:51:38.924Z,135.00
2017-10-09T11:52:38.841Z,123.75
2017-10-09T11:53:38.639Z,135.00
2017-10-09T11:54:38.661Z,129.38
2017-10-09T11:55:38.528Z,123.75
2017-10-09T11:56:38.409Z,118.13
2017-10-09T11:57:38.490Z,123.75
2017-10-09T11:58:38.271Z,135.00
2017-10-09T11:59:38.182Z,123.75
2017-10-09T12:00:38.277Z,112.50
2017-10-09T12:01:38.030Z,112.50
2017-10-09T12:02:37.974Z,112.50
2017-10-09T12:03:38.001Z,118.13
2017-10-09T12:04:38.086Z,135.00
2017-10-09T12:05:37.746Z,146.25
2017-10-09T12:06:38.008Z,129.38
2017-10-09T12:07:37.578Z,123.75
2017-10-09T12:08:37.539Z,118.13
2017-10-09T12:09:37.927Z,112.50
2017-10-09T12:10:39.118Z,112.50
2017-10-09T12:11:37.964Z,95.63
2017-10-09T12:12:40.040Z,84.38
2017-10-09T12:13:37.331Z,90.00
2017-10-09T12:14:37.084Z,84.38
2017-10-09T12:15:37.009Z,84.38
2017-10-09T12:16:36.898Z,78.75
2017-10-09T12:17:38.661Z,84.38
2017-10-09T12:18:36.852Z,78.75
2017-10-09T12:19:36.672Z,78.75
2017-10-09T12:20:36.994Z,78.75
2017-10-09T12:21:36.543Z,84.38
2017-10-09T12:22:36.447Z,90.00
2017-10-09T12:23:36.398Z,101.25
2017-10-09T12:24:36.322Z,118.13
2017-10-09T12:25:36.252Z,123.75
2017-10-09T12:26:36.136Z,135.00
2017-10-09T12:27:36.317Z,163.13
2017-10-09T12:28:36.245Z,163.13
2017-10-09T12:29:35.910Z,151.88
2017-10-09T12:30:35.885Z,151.88
2017-10-09T12:31:35.882Z,163.13
2017-10-09T12:32:35.698Z,180.00
2017-10-09T12:33:35.617Z,241.88
2017-10-09T12:34:35.535Z,472.50
2017-10-09T12:35:35.532Z,427.50
2017-10-09T12:36:35.402Z,528.75
2017-10-09T12:37:35.300Z,613.13
2017-10-09T12:38:35.228Z,635.63
2017-10-09T12:39:35.149Z,945.00
2017-10-09T12:40:35.199Z,1271.25
2017-10-09T12:41:35.054Z,641.25
2017-10-09T12:42:35.009Z,810.00
2017-10-09T12:43:34.868Z,635.63
2017-10-09T12:44:34.772Z,697.50
2017-10-09T12:45:34.783Z,675.00
2017-10-09T12:46:34.625Z,540.00
2017-10-09T12:47:34.589Z,523.13
2017-10-09T12:48:34.490Z,511.88
2017-10-09T12:49:34.481Z,376.88
2017-10-09T12:50:34.400Z,331.88
2017-10-09T12:51:34.321Z,360.00
2017-10-09T12:52:34.415Z,326.25
2017-10-09T12:53:34.100Z,292.50
2017-10-09T12:54:34.527Z,303.75
2017-10-09T12:55:34.027Z,270.00
2017-10-09T12:56:33.933Z,275.63
2017-10-09T12:57:33.825Z,286.88
2017-10-09T12:58:33.911Z,292.50
2017-10-09T12:59:33.889Z,275.63
2017-10-09T13:00:33.600Z,236.25
2017-10-09T13:01:33.758Z,213.75
2017-10-09T13:02:33.564Z,219.38
2017-10-09T13:03:33.549Z,213.75
2017-10-09T13:04:33.484Z,213.75
2017-10-09T13:05:33.345Z,219.38
2017-10-09T13:06:33.291Z,270.00
2017-10-09T13:07:33.659Z,343.13
2017-10-09T13:08:32.982Z,393.75
2017-10-09T13:09:33.206Z,455.63
2017-10-09T13:10:32.960Z,506.25
2017-10-09T13:11:32.913Z,787.50
2017-10-09T13:12:32.709Z,1316.25
2017-10-09T13:13:32.613Z,956.25
2017-10-09T13:14:32.558Z,720.00
2017-10-09T13:15:32.509Z,995.63
2017-10-09T13:16:32.385Z,1479.38
2017-10-09T13:17:32.325Z,421.88
2017-10-09T13:18:34.059Z,348.75
2017-10-09T13:19:34.059Z,253.13
2017-10-09T13:20:32.091Z,196.88
2017-10-09T13:21:32.017Z,168.75
2017-10-09T13:22:31.943Z,151.88
2017-10-09T13:23:31.870Z,123.75
2017-10-09T13:24:31.796Z,95.63
2017-10-09T13:25:31.722Z,73.13
2017-10-09T13:26:31.649Z,73.13
2017-10-09T13:27:31.588Z,78.75
2017-10-09T13:28:31.502Z,78.75
2017-10-09T13:29:31.428Z,73.13
2017-10-09T13:30:31.357Z,67.50
2017-10-09T13:31:31.378Z,67.50
2017-10-09T13:32:31.207Z,67.50
2017-10-09T13:33:31.133Z,67.50
2017-10-09T13:34:31.060Z,67.50
2017-10-09T13:35:30.985Z,67.50
2017-10-09T13:36:30.911Z,61.88
2017-10-09T13:37:30.836Z,61.88
2017-10-09T13:38:30.760Z,78.75
2017-10-09T13:39:30.686Z,90.00
2017-10-09T13:40:30.616Z,90.00
2017-10-09T13:41:30.536Z,90.00
2017-10-09T13:42:30.462Z,90.00
2017-10-09T13:43:30.387Z,84.38
2017-10-09T13:44:30.313Z,84.38
2017-10-09T13:45:30.237Z,78.75
2017-10-09T13:46:30.161Z,73.13
2017-10-09T13:47:30.085Z,73.13
2017-10-09T13:48:30.013Z,73.13
2017-10-09T13:49:29.936Z,73.13
2017-10-09T13:50:29.864Z,73.13
2017-10-09T13:51:29.787Z,67.50
2017-10-09T13:52:29.710Z,67.50
2017-10-09T13:53:29.635Z,73.13
2017-10-09T13:54:29.560Z,78.75
2017-10-09T13:55:29.488Z,84.38
2017-10-09T13:56:29.409Z,90.00
2017-10-09T13:57:29.334Z,90.00
2017-10-09T13:58:29.258Z,84.38
2017-10-09T13:59:29.182Z,90.00
2017-10-09T14:00:29.108Z,90.00
2017-10-09T14:01:29.044Z,95.63
2017-10-09T14:02:28.955Z,95.63
2017-10-09T14:03:28.879Z,101.25
2017-10-09T14:04:28.806Z,101.25
2017-10-09T14:05:28.732Z,101.25
2017-10-09T14:06:28.660Z,101.25
2017-10-09T14:07:28.578Z,95.63
2017-10-09T14:08:28.507Z,95.63
2017-10-09T14:09:28.425Z,101.25
2017-10-09T14:10:28.350Z,118.13
2017-10-09T14:11:28.276Z,174.38
2017-10-09T14:12:28.198Z,208.13
2017-10-09T14:13:28.122Z,196.88
2017-10-09T14:14:28.046Z,196.88
2017-10-09T14:15:27.972Z,180.00
2017-10-09T14:16:27.896Z,174.38
2017-10-09T14:17:27.820Z,174.38
2017-10-09T14:18:27.744Z,191.25
2017-10-09T14:19:27.668Z,208.13
2017-10-09T14:20:27.595Z,202.50
2017-10-09T14:21:27.516Z,168.75
2017-10-09T14:22:27.441Z,151.88
2017-10-09T14:23:27.366Z,146.25
2017-10-09T14:24:27.290Z,135.00
2017-10-09T14:25:27.215Z,123.75
2017-10-09T14:26:27.141Z,129.38
2017-10-09T14:27:27.062Z,163.13
2017-10-09T14:28:26.989Z,185.63
2017-10-09T14:29:26.912Z,225.00
2017-10-09T14:30:26.880Z,275.63
2017-10-09T14:40:26.083Z,191.25
2017-10-09T14:41:26.007Z,191.25
2017-10-09T14:42:25.930Z,185.63
2017-10-09T14:43:25.855Z,185.63
2017-10-09T14:44:25.781Z,191.25
2017-10-09T14:45:25.704Z,196.88
2017-10-09T14:46:25.629Z,180.00
2017-10-09T14:47:25.553Z,185.63
2017-10-09T14:48:25.480Z,174.38
2017-10-09T14:49:25.401Z,168.75
2017-10-09T14:50:25.329Z,180.00
2017-10-09T14:51:25.378Z,180.00
2017-10-09T14:52:25.176Z,168.75
2017-10-09T14:53:25.098Z,157.50
2017-10-09T14:54:25.024Z,157.50
2017-10-09T14:55:24.949Z,157.50
2017-10-09T14:56:24.887Z,157.50
2017-10-09T14:57:24.797Z,157.50
2017-10-09T14:58:24.722Z,168.75
2017-10-09T14:59:24.645Z,174.38
2017-10-09T15:00:24.573Z,174.38
2017-10-09T15:01:24.492Z,174.38
2017-10-09T15:02:24.419Z,174.38
2017-10-09T15:03:24.344Z,174.38
2017-10-09T15:04:24.266Z,174.38
2017-10-09T15:05:24.195Z,174.38
2017-10-09T15:06:24.167Z,174.38
2017-10-09T15:07:24.051Z,168.75
2017-10-09T15:08:23.963Z,163.13
2017-10-09T15:09:23.886Z,163.13
2017-10-09T15:10:23.810Z,157.50
2017-10-09T15:11:23.735Z,151.88
2017-10-09T15:12:23.662Z,146.25
2017-10-09T15:13:23.582Z,140.63
2017-10-09T15:14:23.507Z,135.00
2017-10-09T15:15:23.430Z,135.00
2017-10-09T15:16:23.355Z,135.00
2017-10-09T15:17:23.280Z,135.00
2017-10-09T15:18:23.209Z,135.00
2017-10-09T15:19:23.132Z,135.00
2017-10-09T15:20:23.051Z,135.00
2017-10-09T15:21:22.976Z,123.75
2017-10-09T15:22:22.899Z,123.75
2017-10-09T15:23:22.823Z,112.50
2017-10-09T15:24:22.751Z,101.25
2017-10-09T15:25:22.671Z,95.63
2017-10-09T15:26:22.595Z,101.25
2017-10-09T15:27:22.518Z,106.88
2017-10-09T15:28:22.449Z,112.50
2017-10-09T15:29:22.366Z,112.50
2017-10-09T15:30:22.291Z,118.13
2017-10-09T15:31:22.213Z,112.50
2017-10-09T15:32:22.138Z,112.50
2017-10-09T15:33:22.062Z,112.50
2017-10-09T15:34:21.985Z,112.50
2017-10-09T15:35:21.909Z,112.50
2017-10-09T15:36:21.832Z,112.50
2017-10-09T15:37:21.760Z,112.50
2017-10-09T15:38:21.680Z,106.88
2017-10-09T15:39:21.604Z,106.88
2017-10-09T15:40:21.528Z,106.88
2017-10-09T15:41:21.450Z,101.25
2017-10-09T15:42:21.375Z,95.63
2017-10-09T15:43:21.299Z,95.63
2017-10-09T15:44:21.221Z,90.00
2017-10-09T15:45:21.146Z,84.38
2017-10-09T15:46:21.078Z,78.75
2017-10-09T15:47:20.994Z,78.75
2017-10-09T15:48:20.917Z,73.13
2017-10-09T15:49:20.844Z,78.75
2017-10-09T15:50:20.766Z,73.13
2017-10-09T15:51:20.688Z,67.50